Time;durP1;ratioP1;P1;durP2;ratioP2;P2;SDS_P1;SDS_P2;PMS_P1;PMS_P2;Temp;Humidity;BMP_temperature;BMP_pressure;BME280_temperature;BME280_humidity;BME280_pressure;Samples;Min_cycle;Max_cycle;Signal;HPM_P1;HPM_P2
2021/12/15 00:00:05;;;;;;;3.88;2.80;;;;;;;4.48;100.00;101495.41;5033213;28;20069;-49
2021/12/15 00:02:31;;;;;;;4.38;2.67;;;;;;;4.52;100.00;101501.56;5032876;28;20033;-50
2021/12/15 00:04:57;;;;;;;3.65;2.67;;;;;;;4.63;100.00;101506.16;5033238;28;20041;-48
2021/12/15 00:07:26;;;;;;;3.60;2.55;;;;;;;4.76;100.00;101506.41;5034523;28;20461;-49
2021/12/15 00:09:51;;;;;;;7.55;3.63;;;;;;;4.85;100.00;101511.78;5034201;28;20057;-50
2021/12/15 00:12:17;;;;;;;12.82;7.90;;;;;;;4.92;100.00;101518.88;5034032;28;20051;-52
2021/12/15 00:14:44;;;;;;;8.55;5.20;;;;;;;4.95;100.00;101518.94;5034056;28;20030;-52
2021/12/15 00:17:10;;;;;;;16.05;8.32;;;;;;;4.98;100.00;101524.19;5032713;28;20041;-49
2021/12/15 00:19:37;;;;;;;11.95;7.03;;;;;;;5.14;100.00;101517.53;5033903;28;20539;-50
2021/12/15 00:22:04;;;;;;;21.65;13.00;;;;;;;5.19;99.97;101521.13;5034244;28;20064;-48
2021/12/15 00:24:30;;;;;;;13.13;7.75;;;;;;;5.21;99.74;101522.03;5032665;28;20491;-53
2021/12/15 00:26:56;;;;;;;8.55;4.50;;;;;;;5.30;99.45;101521.31;5033630;28;20045;-49
2021/12/15 00:29:23;;;;;;;8.55;5.38;;;;;;;5.39;98.48;101531.91;5033701;28;20045;-49
2021/12/15 00:31:50;;;;;;;7.82;4.03;;;;;;;5.36;98.17;101537.94;5033846;28;20083;-48
2021/12/15 00:34:17;;;;;;;7.05;4.60;;;;;;;5.30;98.11;101539.53;5033937;28;20033;-49
2021/12/15 00:36:46;;;;;;;5.55;3.75;;;;;;;5.30;98.15;101534.34;5032548;28;20038;-50
2021/12/15 00:39:17;;;;;;;6.47;3.95;;;;;;;5.27;98.44;101542.13;5032426;28;20026;-52
2021/12/15 00:41:43;;;;;;;3.83;2.78;;;;;;;5.30;98.20;101540.41;5033601;28;20033;-52
2021/12/15 00:44:10;;;;;;;7.95;4.82;;;;;;;5.35;97.86;101530.09;5033530;28;20044;-50
2021/12/15 00:46:37;;;;;;;9.52;6.13;;;;;;;5.33;98.42;101542.22;5033954;28;20043;-54
2021/12/15 00:49:04;;;;;;;4.93;3.58;;;;;;;5.29;98.09;101529.97;5033701;28;20033;-51
2021/12/15 00:51:30;;;;;;;5.10;3.53;;;;;;;5.22;98.40;101531.59;5033736;28;20041;-53
2021/12/15 00:53:55;;;;;;;4.63;2.97;;;;;;;5.16;98.52;101534.97;5033358;28;20030;-52
2021/12/15 00:56:21;;;;;;;12.10;8.32;;;;;;;5.15;98.67;101538.44;5033426;28;20053;-52
2021/12/15 00:58:46;;;;;;;6.95;4.45;;;;;;;5.17;98.62;101539.31;5033350;28;20392;-52
2021/12/15 01:01:12;;;;;;;7.57;5.13;;;;;;;5.19;98.80;101535.03;5032293;28;20033;-50
2021/12/15 01:03:37;;;;;;;18.90;10.93;;;;;;;5.31;98.47;101528.28;5033449;28;20116;-53
2021/12/15 01:06:09;;;;;;;18.55;11.45;;;;;;;5.34;98.44;101528.31;5033427;28;20079;-53
2021/12/15 01:08:40;;;;;;;22.70;14.23;;;;;;;5.39;97.74;101531.91;5032109;28;20037;-52
2021/12/15 01:11:24;;;;;;;25.85;16.33;;;;;;;5.43;97.26;101534.59;5033210;28;20032;-51
2021/12/15 01:22:33;;;;;;;14.57;8.30;;;;;;;5.30;97.75;101543.03;5033603;28;20136;-50
2021/12/15 01:25:15;;;;;;;11.52;5.63;;;;;;;5.29;98.09;101545.63;5036172;28;20045;-53
2021/12/15 01:27:41;;;;;;;10.15;6.60;;;;;;;5.29;98.21;101543.00;5036968;28;20075;-52
2021/12/15 01:30:11;;;;;;;8.43;4.95;;;;;;;5.35;97.79;101540.53;5037267;28;20033;-50
2021/12/15 01:32:37;;;;;;;7.57;3.70;;;;;;;5.41;97.29;101548.44;5037076;28;20033;-50
2021/12/15 01:35:04;;;;;;;8.75;4.60;;;;;;;5.38;97.29;101553.59;5037094;28;20037;-52
2021/12/15 01:37:29;;;;;;;27.33;14.43;;;;;;;5.31;97.36;101543.94;5036963;28;20554;-50
2021/12/15 01:39:56;;;;;;;23.90;13.55;;;;;;;5.30;97.25;101548.22;5035845;28;20037;-52
2021/12/15 01:42:26;;;;;;;14.82;8.60;;;;;;;5.29;97.06;101550.81;5036887;28;20108;-50
2021/12/15 01:47:37;;;;;;;9.57;4.93;;;;;;;5.11;98.71;101561.78;5037144;28;20087;-50
2021/12/15 01:50:04;;;;;;;9.75;5.28;;;;;;;4.91;99.58;101558.78;5036816;28;20034;-51
2021/12/15 01:52:34;;;;;;;10.43;5.85;;;;;;;5.02;99.36;101541.63;5036581;28;20029;-50
2021/12/15 01:55:07;;;;;;;14.10;8.25;;;;;;;5.04;99.05;101544.28;5036883;28;20534;-52
2021/12/15 01:57:34;;;;;;;;;;;;;;;4.92;99.48;101553.59;5036969;28;20030;-52
2021/12/15 02:00:03;;;;;;;7.40;4.30;;;;;;;5.08;98.92;101539.16;5036404;28;19917;-50
2021/12/15 02:02:28;;;;;;;20.35;10.85;;;;;;;5.16;98.07;101529.75;5036418;28;20065;-52
2021/12/15 02:04:55;;;;;;;11.52;6.43;;;;;;;5.16;97.57;101545.38;5036515;28;20429;-49
2021/12/15 02:07:22;;;;;;;13.77;7.85;;;;;;;5.13;97.27;101540.13;5036359;28;20083;-50
2021/12/15 02:12:19;;;;;;;11.13;6.53;;;;;;;5.12;97.86;101540.97;5036457;28;20476;-51
2021/12/15 02:14:45;;;;;;;23.63;11.73;;;;;;;5.17;97.52;101534.09;5036372;28;20041;-50
2021/12/15 02:17:11;;;;;;;11.15;6.40;;;;;;;5.19;97.53;101545.44;5036181;28;20463;-50
2021/12/15 02:19:36;;;;;;;13.38;6.88;;;;;;;5.26;97.66;101540.34;5036132;28;20025;-50
2021/12/15 02:22:03;;;;;;;13.63;8.35;;;;;;;5.31;97.15;101549.16;5034864;28;20037;-50
2021/12/15 02:24:29;;;;;;;14.60;8.32;;;;;;;5.33;97.16;101544.81;5034927;28;20105;-51
2021/12/15 02:26:59;;;;;;;17.55;9.20;;;;;;;5.27;96.80;101550.81;5036069;28;20069;-50
2021/12/15 02:29:25;;;;;;;11.27;6.30;;;;;;;5.27;97.21;101549.94;5035039;28;20083;-52
2021/12/15 02:32:06;;;;;;;14.13;6.28;;;;;;;5.17;98.10;101552.34;5035868;28;20029;-51
2021/12/15 02:34:54;;;;;;;10.95;6.03;;;;;;;5.22;97.66;101555.03;5034756;28;20036;-51
2021/12/15 02:37:20;;;;;;;19.00;8.90;;;;;;;5.19;98.81;101547.19;5035772;28;20042;-52
2021/12/15 02:39:56;;;;;;;20.77;12.40;;;;;;;5.33;97.75;101547.44;5034971;28;20492;-50
2021/12/15 02:42:25;;;;;;;10.80;6.60;;;;;;;5.35;97.59;101543.13;5036182;28;20362;-52
2021/12/15 02:44:51;;;;;;;13.32;7.32;;;;;;;5.32;97.51;101540.47;5035578;28;20449;-50
2021/12/15 02:47:21;;;;;;;13.70;8.13;;;;;;;5.39;97.01;101547.56;5036009;28;20029;-52
2021/12/15 02:49:48;;;;;;;14.30;8.23;;;;;;;5.44;96.57;101545.91;5035754;28;20037;-49
2021/12/15 02:52:14;;;;;;;16.98;9.10;;;;;;;5.49;96.17;101551.19;5035550;28;20124;-52
2021/12/15 02:54:39;;;;;;;8.38;4.97;;;;;;;5.50;96.21;101545.13;5034384;28;20123;-52
2021/12/15 02:57:10;;;;;;;9.90;5.60;;;;;;;5.51;95.78;101546.91;5035566;28;20060;-50
2021/12/15 02:59:47;;;;;;;9.25;5.32;;;;;;;5.48;95.70;101547.72;5035854;28;20036;-50
2021/12/15 03:05:05;;;;;;;6.20;3.88;;;;;;;5.29;96.27;101551.69;5035556;28;20033;-50
2021/12/15 03:07:47;;;;;;;7.70;3.83;;;;;;;5.32;96.58;101546.56;5035407;28;20381;-50
2021/12/15 03:15:46;;;;;;;11.73;6.95;;;;;;;5.28;96.99;101538.66;5035430;28;20543;-53
2021/12/15 03:18:16;;;;;;;7.40;5.22;;;;;;;5.27;97.25;101531.69;5035059;28;20026;-50
2021/12/15 03:20:49;;;;;;;8.98;5.93;;;;;;;5.29;96.97;101536.06;5035571;28;20037;-53
2021/12/15 03:23:25;;;;;;;13.50;9.15;;;;;;;5.19;96.82;101527.22;5035597;28;20034;-54
2021/12/15 03:25:51;;;;;;;20.02;13.88;;;;;;;5.09;97.09;101530.47;5035010;28;20120;-51
2021/12/15 03:36:51;;;;;;;9.35;5.43;;;;;;;5.07;98.00;101507.88;5034871;28;20113;-50
2021/12/15 03:39:16;;;;;;;8.13;4.82;;;;;;;5.10;97.94;101506.19;5034670;28;20044;-53
2021/12/15 03:41:42;;;;;;;11.95;7.13;;;;;;;5.19;97.55;101511.59;5034667;28;20038;-54
2021/12/15 03:44:08;;;;;;;10.82;6.93;;;;;;;5.16;97.17;101518.47;5034661;28;20029;-53
2021/12/15 03:46:35;;;;;;;12.82;7.72;;;;;;;5.08;97.42;101517.44;5034379;28;20460;-50
2021/12/15 03:49:01;;;;;;;7.82;4.63;;;;;;;5.00;98.41;101506.88;5033275;28;20040;-50
2021/12/15 03:51:27;;;;;;;17.30;9.20;;;;;;;5.05;98.17;101505.22;5034674;28;20037;-52
2021/12/15 03:53:52;;;;;;;7.57;4.20;;;;;;;5.01;98.11;101519.03;5034587;28;20025;-52
2021/12/15 03:56:18;;;;;;;6.70;3.53;;;;;;;4.87;99.17;101529.19;5034313;28;20037;-50
2021/12/15 03:58:45;;;;;;;5.85;3.53;;;;;;;4.82;99.82;101528.22;5034444;28;20156;-52
2021/12/15 04:01:15;;;;;;;6.80;3.92;;;;;;;4.94;99.38;101499.78;5034279;28;20464;-52
2021/12/15 04:03:44;;;;;;;11.15;6.57;;;;;;;4.99;99.26;101499.91;5034085;28;20583;-51
2021/12/15 04:06:15;;;;;;;7.95;5.10;;;;;;;4.99;99.50;101496.41;5034082;28;20048;-51
2021/12/15 04:08:40;;;;;;;9.70;5.78;;;;;;;5.04;99.26;101500.88;5034156;28;20029;-52
2021/12/15 04:11:09;;;;;;;7.45;4.55;;;;;;;5.07;99.29;101497.44;5034309;28;20061;-51
2021/12/15 04:13:35;;;;;;;6.18;4.03;;;;;;;5.04;99.38;101500.00;5034441;28;20097;-51
2021/12/15 04:16:06;;;;;;;7.03;3.80;;;;;;;5.13;99.48;101482.78;5032979;28;20044;-52
2021/12/15 04:18:33;;;;;;;6.03;4.40;;;;;;;5.20;98.90;101499.44;5033983;28;20037;-50
2021/12/15 04:20:59;;;;;;;7.22;4.90;;;;;;;5.18;98.59;101501.09;5033663;28;20385;-51
2021/12/15 04:23:25;;;;;;;6.43;4.53;;;;;;;5.11;98.66;101500.13;5034000;28;20033;-50
2021/12/15 04:25:59;;;;;;;6.28;3.80;;;;;;;5.09;98.83;101499.22;5033962;28;20065;-52
2021/12/15 04:28:29;;;;;;;7.10;4.78;;;;;;;5.16;99.01;101503.69;5033757;28;20485;-50
2021/12/15 04:30:57;;;;;;;5.50;3.60;;;;;;;5.26;98.77;101490.81;5034176;28;20037;-50
2021/12/15 04:33:28;;;;;;;6.15;4.22;;;;;;;5.22;99.30;101508.13;5034170;28;20112;-50
2021/12/15 04:35:56;;;;;;;6.35;4.20;;;;;;;5.21;98.47;101511.59;5033800;28;20373;-50
2021/12/15 04:38:25;;;;;;;4.97;3.53;;;;;;;5.26;98.49;101509.06;5033817;28;20029;-49
2021/12/15 04:40:51;;;;;;;6.25;4.15;;;;;;;5.26;98.38;101509.06;5032471;28;20025;-50
2021/12/15 04:43:17;;;;;;;4.38;3.60;;;;;;;5.26;98.06;101514.28;5033645;28;20034;-50
2021/12/15 04:45:42;;;;;;;5.53;3.97;;;;;;;5.29;98.35;101514.34;5033342;28;20041;-51
2021/12/15 04:48:09;;;;;;;4.20;3.10;;;;;;;5.35;97.97;101519.69;5033562;28;20037;-52
2021/12/15 04:50:36;;;;;;;3.97;2.92;;;;;;;5.42;97.49;101527.59;5033581;28;20381;-49
2021/12/15 04:53:03;;;;;;;7.07;4.47;;;;;;;5.50;97.04;101526.88;5033405;28;20025;-51
2021/12/15 04:55:30;;;;;;;5.45;3.85;;;;;;;5.52;96.80;101533.00;5033440;28;20033;-51
2021/12/15 04:57:58;;;;;;;5.70;4.00;;;;;;;5.49;96.29;101528.59;5032904;28;20033;-51
2021/12/15 05:00:29;;;;;;;5.93;3.80;;;;;;;5.38;96.60;101530.13;5033517;28;20481;-52
2021/12/15 05:02:55;;;;;;;5.03;3.50;;;;;;;5.43;96.69;101532.00;5033561;28;20025;-54
2021/12/15 05:05:22;;;;;;;5.38;3.65;;;;;;;5.43;96.68;101528.50;5033329;28;20040;-53
2021/12/15 05:07:49;;;;;;;5.05;3.47;;;;;;;5.40;97.00;101536.28;5033681;28;20038;-50
2021/12/15 05:10:16;;;;;;;4.60;3.15;;;;;;;5.42;96.74;101534.56;5031997;28;20120;-52
2021/12/15 05:12:42;;;;;;;5.10;3.45;;;;;;;5.41;96.63;101530.19;5033161;28;20519;-54
2021/12/15 05:15:08;;;;;;;4.57;3.10;;;;;;;5.47;96.40;101530.31;5033564;28;20038;-49
2021/12/15 05:17:35;;;;;;;5.70;3.28;;;;;;;5.45;96.52;101532.00;5033282;28;20068;-49
2021/12/15 05:20:02;;;;;;;5.25;3.72;;;;;;;5.45;96.65;101526.78;5033104;28;20029;-50
2021/12/15 05:22:28;;;;;;;20.10;12.52;;;;;;;5.52;96.52;101523.44;5033186;28;20034;-50
2021/12/15 05:24:53;;;;;;;95.72;44.53;;;;;;;5.57;96.58;101536.56;5033390;28;20044;-49
2021/12/15 05:27:19;;;;;;;106.20;52.90;;;;;;;5.64;96.40;101528.88;5032855;28;20148;-50
2021/12/15 05:29:50;;;;;;;60.28;44.38;;;;;;;5.65;96.09;101528.00;5033701;28;20036;-50
2021/12/15 05:32:18;;;;;;;40.78;30.30;;;;;;;5.68;96.64;101529.81;5033370;28;20037;-54
2021/12/15 05:34:46;;;;;;;19.52;14.52;;;;;;;5.80;96.00;101530.00;5032311;28;20116;-53
2021/12/15 05:37:13;;;;;;;13.07;10.02;;;;;;;5.89;95.68;101534.47;5032948;28;20030;-51
2021/12/15 05:39:40;;;;;;;8.70;7.35;;;;;;;5.92;94.77;101534.56;5033015;28;20033;-51
2021/12/15 05:42:06;;;;;;;12.85;10.32;;;;;;;5.94;94.71;101535.44;5033176;28;20040;-51
2021/12/15 05:44:32;;;;;;;8.35;7.18;;;;;;;6.02;94.34;101536.44;5033058;28;20078;-50
2021/12/15 05:47:00;;;;;;;7.95;7.07;;;;;;;6.07;93.86;101524.38;5032904;28;20025;-50
2021/12/15 05:49:26;;;;;;;6.30;5.30;;;;;;;6.10;93.43;101523.53;5033046;28;20034;-53
2021/12/15 05:51:52;;;;;;;6.68;5.30;;;;;;;6.12;93.20;101537.47;5032940;28;20086;-50
2021/12/15 05:54:18;;;;;;;6.90;5.30;;;;;;;6.11;93.07;101536.59;5031648;28;20041;-53
2021/12/15 05:56:43;;;;;;;5.93;4.88;;;;;;;6.15;92.85;101535.81;5033014;28;20037;-51
2021/12/15 05:59:09;;;;;;;7.05;5.35;;;;;;;6.15;92.84;101534.94;5032868;28;20434;-52
2021/12/15 06:01:34;;;;;;;7.80;5.90;;;;;;;6.13;92.73;101537.50;5033167;28;20036;-51
2021/12/15 06:04:00;;;;;;;8.40;6.10;;;;;;;6.13;92.54;101534.88;5032731;28;20033;-49
2021/12/15 06:06:27;;;;;;;9.55;6.32;;;;;;;6.13;92.64;101534.00;5032733;28;20037;-51
2021/12/15 06:08:53;;;;;;;8.73;5.97;;;;;;;6.13;92.53;101527.06;5033584;28;20025;-53
2021/12/15 06:11:18;;;;;;;8.50;6.15;;;;;;;6.09;92.46;101516.56;5034846;28;20096;-53
2021/12/15 06:13:47;;;;;;;10.00;6.72;;;;;;;6.09;92.40;101520.03;5035223;28;20029;-53
2021/12/15 06:16:18;;;;;;;9.57;6.65;;;;;;;6.08;92.55;101523.50;5036128;28;20041;-49
2021/12/15 06:18:44;;;;;;;12.20;7.75;;;;;;;6.09;92.16;101533.09;5019298;28;20547;-51
2021/12/15 06:21:10;;;;;;;13.77;9.23;;;;;;;6.12;92.52;101538.34;5036067;28;20069;-53
2021/12/15 06:23:36;;;;;;;15.13;10.05;;;;;;;6.17;92.23;101530.59;5034852;28;20065;-49
2021/12/15 06:26:05;;;;;;;12.52;8.93;;;;;;;6.20;91.95;101527.16;5034907;28;20030;-48
2021/12/15 06:28:32;;;;;;;13.77;10.48;;;;;;;6.23;91.78;101514.16;5036163;28;20038;-49
2021/12/15 06:30:58;;;;;;;18.15;12.63;;;;;;;6.18;91.74;101519.28;5035824;28;20029;-53
2021/12/15 06:33:25;;;;;;;21.83;14.50;;;;;;;6.19;91.76;101517.59;5035755;28;20041;-52
2021/12/15 06:35:57;;;;;;;19.75;13.77;;;;;;;6.20;91.70;101529.78;5034291;28;20091;-50
2021/12/15 06:38:34;;;;;;;23.20;16.80;;;;;;;6.17;91.57;101518.41;5036119;28;20076;-49
2021/12/15 06:41:00;;;;;;;19.80;15.90;;;;;;;6.16;91.80;101516.66;5033956;28;20493;-54
2021/12/15 06:43:26;;;;;;;21.58;14.65;;;;;;;6.20;91.81;101508.88;5034474;28;20037;-52
2021/12/15 06:59:27;;;;;;;42.58;22.30;;;;;;;6.14;92.14;101521.00;5035788;28;20040;-53
2021/12/15 07:01:53;;;;;;;37.65;19.50;;;;;;;6.15;92.20;101516.66;5037147;28;20037;-50
2021/12/15 07:04:20;;;;;;;37.60;20.25;;;;;;;6.13;92.07;101520.97;5036584;28;20424;-52
2021/12/15 07:06:47;;;;;;;55.13;33.88;;;;;;;6.14;92.01;101528.84;5035387;28;20036;-49
2021/12/15 07:09:13;;;;;;;38.40;23.15;;;;;;;6.15;92.14;101532.31;5040339;28;20036;-51
2021/12/15 07:11:39;;;;;;;32.78;20.10;;;;;;;6.20;91.91;101529.78;5040203;28;20124;-51
2021/12/15 07:14:05;;;;;;;28.92;17.35;;;;;;;6.25;91.67;101533.31;5034001;28;20029;-51
2021/12/15 07:16:32;;;;;;;34.55;19.23;;;;;;;6.30;91.32;101536.84;5054846;28;20083;-50
2021/12/15 07:19:44;;;;;;;41.45;23.83;;;;;;;6.30;91.09;101539.47;5055005;28;20064;-52
2021/12/15 07:22:09;;;;;;;30.55;18.23;;;;;;;6.36;90.71;101531.75;5053550;28;20166;-51
2021/12/15 07:24:37;;;;;;;24.40;15.18;;;;;;;6.37;90.40;101533.47;5055043;28;20102;-49
2021/12/15 07:27:04;;;;;;;21.60;13.30;;;;;;;6.34;90.47;101518.69;5041070;28;20054;-49
2021/12/15 07:29:30;;;;;;;22.08;13.50;;;;;;;6.34;90.25;101520.38;5031975;28;20378;-49
2021/12/15 07:31:57;;;;;;;24.65;14.57;;;;;;;6.29;90.26;101509.88;5035012;28;20033;-52
2021/12/15 07:34:23;;;;;;;26.70;15.50;;;;;;;6.30;90.15;101521.19;5034250;28;20036;-53
2021/12/15 07:36:48;;;;;;;21.05;13.65;;;;;;;6.25;90.27;101522.88;5034684;28;20030;-47
2021/12/15 07:39:15;;;;;;;18.33;11.10;;;;;;;6.23;90.38;101524.59;5034439;28;20493;-53
2021/12/15 07:41:55;;;;;;;29.13;19.88;;;;;;;6.26;90.21;101522.88;5033136;28;20071;-52
2021/12/15 07:44:22;;;;;;;18.35;11.40;;;;;;;6.26;90.08;101529.84;5034447;28;20507;-51
2021/12/15 07:46:52;;;;;;;20.73;12.65;;;;;;;6.30;89.92;101523.81;5034560;28;20090;-51
2021/12/15 07:49:21;;;;;;;19.58;11.68;;;;;;;6.30;89.97;101515.97;5034451;28;20037;-52
2021/12/15 07:51:48;;;;;;;19.98;10.98;;;;;;;6.31;90.06;101520.38;5034312;28;20033;-49
2021/12/15 07:54:14;;;;;;;22.00;15.48;;;;;;;6.35;89.88;101514.34;5032975;28;20033;-49
2021/12/15 07:56:42;;;;;;;26.90;17.65;;;;;;;6.37;89.65;101517.81;5034446;28;20033;-50
2021/12/15 07:59:07;;;;;;;21.85;14.55;;;;;;;6.40;89.71;101520.47;5034266;28;20135;-53
2021/12/15 08:01:33;;;;;;;22.38;14.15;;;;;;;6.46;89.49;101520.53;5034213;28;20117;-49
2021/12/15 08:03:58;;;;;;;19.77;13.10;;;;;;;6.48;89.56;101516.25;5033216;28;20381;-54
2021/12/15 08:06:26;;;;;;;18.83;12.38;;;;;;;6.55;89.29;101518.06;5033089;28;20035;-49
2021/12/15 08:08:53;;;;;;;19.25;12.38;;;;;;;6.58;89.11;101517.22;5034296;28;20048;-54
2021/12/15 08:11:19;;;;;;;19.10;12.07;;;;;;;6.59;89.14;101519.00;5034002;28;20038;-51
2021/12/15 08:13:45;;;;;;;19.15;13.95;;;;;;;6.63;89.04;101511.22;5033983;28;20040;-54
2021/12/15 08:16:11;;;;;;;18.23;12.40;;;;;;;6.68;88.90;101505.19;5033910;28;20087;-53
2021/12/15 08:18:36;;;;;;;15.75;11.75;;;;;;;6.75;88.61;101509.63;5034116;28;20520;-53
2021/12/15 08:21:04;;;;;;;13.93;9.73;;;;;;;6.76;88.50;101519.19;5034055;28;20124;-53
2021/12/15 08:23:30;;;;;;;15.88;10.25;;;;;;;6.78;88.51;101525.31;5033667;28;20037;-52
2021/12/15 08:25:56;;;;;;;17.98;10.85;;;;;;;6.81;88.69;101515.78;5033426;28;20091;-52
2021/12/15 08:28:22;;;;;;;16.52;10.75;;;;;;;6.86;88.31;101513.22;5032509;28;20053;-51
2021/12/15 08:30:49;;;;;;;19.02;12.48;;;;;;;6.90;88.13;101521.13;5032087;28;20041;-50
2021/12/15 08:33:18;;;;;;;19.73;12.48;;;;;;;6.94;87.86;101519.41;5034184;28;20044;-50
2021/12/15 08:35:48;;;;;;;27.35;19.25;;;;;;;6.92;88.02;101523.75;5049008;28;20033;-49
2021/12/15 08:38:14;;;;;;;18.48;13.82;;;;;;;6.91;88.15;101522.00;5035645;28;20029;-50
2021/12/15 08:40:41;;;;;;;16.92;11.77;;;;;;;6.95;88.07;101526.41;5033698;28;20404;-52
2021/12/15 08:43:07;;;;;;;13.77;9.52;;;;;;;6.97;88.24;101531.63;5031907;28;20059;-51
2021/12/15 08:45:35;;;;;;;15.88;9.95;;;;;;;7.00;88.15;101536.91;5033524;28;20033;-52
2021/12/15 08:48:04;;;;;;;12.30;9.02;;;;;;;7.01;88.18;101538.66;5033494;28;20044;-52
2021/12/15 08:50:32;;;;;;;13.43;9.35;;;;;;;7.05;88.18;101540.44;5033689;28;20113;-48
2021/12/15 08:52:58;;;;;;;12.75;8.73;;;;;;;7.06;88.33;101536.94;5033339;28;20074;-52
2021/12/15 08:55:25;;;;;;;12.15;8.60;;;;;;;7.10;87.77;101544.88;5033145;28;20112;-49
2021/12/15 08:57:53;;;;;;;13.68;9.25;;;;;;;7.14;87.85;101538.81;5032038;28;20485;-50
2021/12/15 09:00:21;;;;;;;13.35;8.90;;;;;;;7.20;88.01;101538.00;5033807;28;20040;-52
2021/12/15 09:02:47;;;;;;;13.93;9.30;;;;;;;7.22;87.67;101535.38;5033620;28;20044;-47
2021/12/15 09:05:13;;;;;;;16.45;10.63;;;;;;;7.27;87.71;101539.81;5033350;28;20029;-50
2021/12/15 09:07:43;;;;;;;17.98;11.10;;;;;;;7.36;87.18;101532.06;5033754;28;20042;-49
2021/12/15 09:10:10;;;;;;;18.20;12.13;;;;;;;7.40;87.14;101522.50;5033033;28;20034;-49
2021/12/15 09:12:38;;;;;;;20.70;13.45;;;;;;;7.46;86.96;101522.56;5051877;28;20035;-51
2021/12/15 09:15:05;;;;;;;29.92;16.60;;;;;;;7.41;86.84;101513.78;5052162;28;20472;-51
2021/12/15 09:17:31;;;;;;;36.38;21.38;;;;;;;7.41;86.91;101509.44;5047307;28;20060;-49
2021/12/15 09:19:57;;;;;;;26.02;17.02;;;;;;;7.41;87.43;101498.09;5049378;28;20079;-53
2021/12/15 09:22:22;;;;;;;21.42;13.63;;;;;;;7.43;87.20;101504.25;5038638;28;20061;-48
2021/12/15 09:24:48;;;;;;;20.50;13.05;;;;;;;7.43;87.42;101505.97;5032754;28;20037;-50
2021/12/15 09:27:13;;;;;;;15.60;10.30;;;;;;;7.39;87.22;101518.16;5032809;28;20065;-48
2021/12/15 09:29:39;;;;;;;21.65;14.40;;;;;;;7.34;87.52;101528.56;5033182;28;20477;-49
2021/12/15 09:32:05;;;;;;;18.88;13.43;;;;;;;7.31;87.97;101520.69;5041910;28;20084;-51
2021/12/15 09:34:31;;;;;;;16.13;11.15;;;;;;;7.53;94.68;101508.66;5032536;28;20045;-50
2021/12/15 09:36:57;;;;;;;17.45;10.75;;;;;;;8.02;92.97;101508.16;5038957;28;20457;-49
2021/12/15 09:39:22;;;;;;;18.20;9.65;;;;;;;8.48;91.06;101509.34;5050447;28;20098;-53
2021/12/15 09:41:50;;;;;;;17.05;11.73;;;;;;;8.84;87.38;101507.75;5042487;28;20028;-49
2021/12/15 09:44:21;;;;;;;18.98;12.15;;;;;;;9.11;85.77;101507.84;5036005;28;20025;-50
2021/12/15 10:03:28;;;;;;;29.58;18.98;;;;;;;8.44;84.20;101485.75;5036459;28;20131;-52
2021/12/15 10:19:42;;;;;;;34.13;21.10;;;;;;;7.81;87.89;101485.34;5044703;28;20087;-48
2021/12/15 10:22:42;;;;;;;27.83;17.70;;;;;;;7.82;88.22;101471.38;5034970;28;20033;-50
2021/12/15 10:25:20;;;;;;;24.65;15.35;;;;;;;7.87;88.25;101473.19;5038874;28;20037;-51
2021/12/15 10:28:04;;;;;;;32.30;18.38;;;;;;;7.84;88.84;101477.53;5035825;28;20473;-48
2021/12/15 10:30:42;;;;;;;26.42;16.52;;;;;;;7.87;88.55;101474.94;5036209;28;20034;-50
2021/12/15 10:33:32;;;;;;;37.17;22.25;;;;;;;7.86;89.23;101475.81;5035963;28;20033;-51
2021/12/15 10:36:07;;;;;;;34.33;21.55;;;;;;;7.85;89.24;101467.06;5036780;28;20033;-53
2021/12/15 10:38:39;;;;;;;22.20;14.50;;;;;;;7.86;89.01;101471.44;5052711;28;20040;-52
2021/12/15 10:41:26;;;;;;;17.95;11.30;;;;;;;7.92;89.53;101467.13;5055003;28;20043;-52
2021/12/15 10:43:58;;;;;;;18.65;11.77;;;;;;;7.93;89.45;101476.72;5051346;28;20052;-52
2021/12/15 10:46:53;;;;;;;20.00;11.90;;;;;;;7.90;89.95;101475.84;5055583;28;20029;-51
2021/12/15 10:49:26;;;;;;;16.33;11.35;;;;;;;7.83;90.18;101470.56;5053555;28;20139;-53
2021/12/15 10:51:51;;;;;;;15.20;10.85;;;;;;;7.94;89.66;101475.84;5054370;28;20032;-53
2021/12/15 10:54:18;;;;;;;17.27;11.23;;;;;;;7.92;90.39;101465.38;5054743;28;20033;-51
2021/12/15 10:56:55;;;;;;;18.75;11.68;;;;;;;8.06;89.98;101452.38;5055173;28;20032;-50
2021/12/15 10:59:23;;;;;;;22.00;14.10;;;;;;;8.22;88.98;101458.56;5045845;28;20036;-50
2021/12/15 11:01:57;;;;;;;24.10;15.45;;;;;;;8.25;88.99;101464.69;5039050;28;20045;-54
2021/12/15 11:04:27;;;;;;;26.23;16.25;;;;;;;8.25;88.66;101474.28;5055109;28;20033;-50
2021/12/15 11:07:07;;;;;;;41.65;25.98;;;;;;;8.10;89.90;101475.97;5051712;28;20067;-52
2021/12/15 11:09:38;;;;;;;28.15;17.23;;;;;;;8.15;89.68;101469.00;5040697;28;20037;-49
2021/12/15 11:12:12;;;;;;;28.10;17.83;;;;;;;8.12;89.93;101458.50;5035306;28;20030;-51
2021/12/15 11:14:41;;;;;;;25.42;14.98;;;;;;;8.15;90.25;101469.00;5035219;28;20037;-50
2021/12/15 11:17:14;;;;;;;22.55;13.73;;;;;;;8.22;89.84;101461.16;5035346;28;20025;-50
2021/12/15 11:20:07;;;;;;;27.35;16.42;;;;;;;8.23;89.90;101460.31;5052764;28;20037;-50
2021/12/15 11:22:35;;;;;;;31.80;17.98;;;;;;;8.17;89.97;101471.63;5045630;28;20082;-51
2021/12/15 11:25:05;;;;;;;32.80;18.02;;;;;;;8.20;90.27;101470.78;5044768;28;20510;-52
2021/12/15 11:27:31;;;;;;;53.60;29.25;;;;;;;8.09;91.00;101463.72;5040404;28;20049;-52
2021/12/15 11:29:56;;;;;;;37.42;20.40;;;;;;;8.14;90.66;101455.91;5042696;28;20039;-53
2021/12/15 11:32:43;;;;;;;25.05;14.90;;;;;;;8.22;91.00;101463.78;5054059;28;20035;-50
2021/12/15 11:35:19;;;;;;;34.15;19.13;;;;;;;8.29;90.25;101457.72;5054370;28;20078;-51
2021/12/15 11:37:48;;;;;;;50.85;26.73;;;;;;;8.32;90.06;101460.34;5054719;28;20033;-53
2021/12/15 11:40:16;;;;;;;24.83;15.40;;;;;;;8.33;90.45;101457.72;5053382;28;20389;-51
2021/12/15 11:42:44;;;;;;;23.67;14.63;;;;;;;8.43;89.29;101448.22;5026764;28;20116;-49
2021/12/15 11:45:12;;;;;;;24.83;14.00;;;;;;;8.46;89.14;101444.72;5035073;28;20033;-52
2021/12/15 11:47:38;;;;;;;24.38;13.60;;;;;;;8.47;89.08;101454.34;5037744;28;20033;-50
2021/12/15 11:50:11;;;;;;;25.25;14.80;;;;;;;8.43;89.28;101443.00;5040158;28;20028;-52
2021/12/15 11:52:45;;;;;;;22.20;13.55;;;;;;;8.31;89.98;101446.41;5038760;28;20048;-53
2021/12/15 11:55:30;;;;;;;26.70;17.05;;;;;;;8.31;90.07;101442.91;5054298;28;20453;-50
2021/12/15 11:57:56;;;;;;;22.55;14.52;;;;;;;8.37;89.85;101442.94;5048334;28;20052;-53
2021/12/15 12:00:26;;;;;;;24.83;14.90;;;;;;;8.37;89.85;101443.81;5037713;28;20037;-53
2021/12/15 12:02:55;;;;;;;29.85;18.38;;;;;;;8.37;90.03;101438.59;5048894;28;20114;-52
2021/12/15 12:05:35;;;;;;;29.98;18.73;;;;;;;8.34;90.12;101435.94;5054081;28;20048;-53
2021/12/15 12:08:07;;;;;;;24.90;16.27;;;;;;;8.34;90.50;101446.41;5053508;28;20033;-52
2021/12/15 12:10:34;;;;;;;30.70;19.17;;;;;;;8.31;90.96;101437.66;5054115;28;20033;-48
2021/12/15 12:13:10;;;;;;;51.70;25.25;;;;;;;8.29;90.81;101439.38;5053692;28;20033;-52
2021/12/15 12:15:40;;;;;;;34.42;18.88;;;;;;;8.29;90.95;101436.78;5033986;28;20029;-49
2021/12/15 12:18:10;;;;;;;38.78;23.15;;;;;;;8.26;91.59;101427.19;5044035;28;20086;-49
2021/12/15 12:20:38;;;;;;;35.22;22.17;;;;;;;8.31;91.32;101430.69;5039422;28;20033;-52
2021/12/15 12:23:08;;;;;;;35.33;21.70;;;;;;;8.27;91.58;101431.53;5044017;28;20102;-48
2021/12/15 12:25:40;;;;;;;59.92;33.22;;;;;;;8.31;92.10;101416.72;5043414;28;20040;-51
2021/12/15 12:28:10;;;;;;;29.35;18.50;;;;;;;8.32;91.94;101421.09;5039689;28;20045;-49
2021/12/15 12:30:45;;;;;;;42.88;26.80;;;;;;;8.32;91.69;101418.47;5040526;28;20060;-51
2021/12/15 12:33:13;;;;;;;27.35;17.80;;;;;;;8.31;92.08;101414.97;5038988;28;20393;-53
2021/12/15 12:35:47;;;;;;;32.58;20.92;;;;;;;8.24;92.91;101407.09;5048658;28;20369;-53
2021/12/15 12:38:21;;;;;;;30.95;18.70;;;;;;;8.35;92.17;101401.03;5050871;28;20503;-51
2021/12/15 12:41:04;;;;;;;34.67;21.52;;;;;;;8.49;91.57;101408.06;5033731;28;20033;-50
2021/12/15 12:43:39;;;;;;;34.45;20.70;;;;;;;8.44;91.99;101408.06;5033971;28;20052;-49
2021/12/15 12:46:21;;;;;;;32.00;18.42;;;;;;;8.48;91.78;101409.81;5033285;28;20468;-52